Time;durP1;ratioP1;P1;durP2;ratioP2;P2;SDS_P1;SDS_P2;PMS_P1;PMS_P2;Temp;Humidity;BMP_temperature;BMP_pressure;BME280_temperature;BME280_humidity;BME280_pressure;Samples;Min_cycle;Max_cycle;Signal;HPM_P1;HPM_P2
2022/03/12 00:00:13;;;;;;;70.83;9.07;;;9.20;1.00;;;;;;4999256;28;20534;-82
2022/03/12 00:02:39;;;;;;;67.10;10.82;;;9.30;1.00;;;;;;5000760;28;20159;-82
2022/03/12 00:05:09;;;;;;;67.47;9.27;;;9.20;1.00;;;;;;4999134;28;20177;-82
2022/03/12 00:07:42;;;;;;;69.88;10.65;;;9.30;1.00;;;;;;5000418;28;20183;-83
2022/03/12 00:10:13;;;;;;;67.00;10.13;;;9.30;1.00;;;;;;5000142;28;20162;-82
2022/03/12 00:12:40;;;;;;;69.20;9.65;;;9.30;1.00;;;;;;4999920;28;20295;-82
2022/03/12 00:15:10;;;;;;;67.57;10.13;;;9.30;1.00;;;;;;4998760;28;20177;-82
2022/03/12 00:17:39;;;;;;;67.63;10.00;;;9.30;1.00;;;;;;4999404;28;20201;-82
2022/03/12 00:20:09;;;;;;;71.72;10.48;;;9.30;1.00;;;;;;5000000;28;20159;-82
2022/03/12 00:22:37;;;;;;;66.70;8.55;;;9.40;1.00;;;;;;5000362;28;20512;-82
2022/03/12 00:25:09;;;;;;;70.80;10.35;;;9.40;1.00;;;;;;4999869;28;20155;-82
2022/03/12 00:27:36;;;;;;;69.30;9.88;;;9.40;1.00;;;;;;4999709;28;20682;-82
2022/03/12 00:30:02;;;;;;;72.60;10.65;;;9.40;1.00;;;;;;4999871;28;20170;-82
2022/03/12 00:32:30;;;;;;;67.50;10.65;;;9.40;1.00;;;;;;4998325;28;20205;-82
2022/03/12 00:34:55;;;;;;;67.70;11.25;;;9.40;1.00;;;;;;4999684;28;20159;-82
2022/03/12 00:37:21;;;;;;;72.87;11.10;;;9.40;1.00;;;;;;4999691;28;20202;-82
2022/03/12 00:39:47;;;;;;;70.07;10.30;;;9.30;1.00;;;;;;4999501;28;20167;-82
2022/03/12 00:42:13;;;;;;;67.85;10.25;;;9.30;1.00;;;;;;5000524;28;20398;-82
2022/03/12 00:44:40;;;;;;;68.45;10.15;;;9.30;1.00;;;;;;4999078;28;20162;-82
2022/03/12 00:47:06;;;;;;;66.18;10.30;;;9.30;1.00;;;;;;4999824;28;20197;-82
2022/03/12 00:49:31;;;;;;;69.13;9.73;;;9.30;1.00;;;;;;5000819;28;20545;-82
2022/03/12 00:51:57;;;;;;;72.97;9.73;;;9.30;1.00;;;;;;5003971;28;20985;-82
2022/03/12 00:54:23;;;;;;;68.30;10.30;;;9.40;1.00;;;;;;5003655;28;20174;-82
2022/03/12 00:56:48;;;;;;;70.27;11.77;;;9.30;1.00;;;;;;5003422;28;20257;-82
2022/03/12 00:59:14;;;;;;;69.50;11.43;;;9.30;1.00;;;;;;5003834;28;20197;-82
2022/03/12 01:01:39;;;;;;;68.93;10.97;;;9.30;1.00;;;;;;5003552;28;20185;-82
2022/03/12 01:04:06;;;;;;;67.70;10.20;;;9.30;1.00;;;;;;5003208;28;20170;-82
2022/03/12 01:06:34;;;;;;;68.57;10.40;;;9.30;1.00;;;;;;5002904;28;20195;-82
2022/03/12 01:09:00;;;;;;;69.85;10.93;;;9.30;1.00;;;;;;5003263;28;20213;-82
2022/03/12 01:11:26;;;;;;;67.55;9.27;;;9.30;1.00;;;;;;5003754;28;20535;-82
2022/03/12 01:13:52;;;;;;;67.18;7.32;;;9.30;1.00;;;;;;5003177;28;20158;-82
2022/03/12 01:16:18;;;;;;;67.70;9.50;;;9.30;1.00;;;;;;5003279;28;20217;-82
2022/03/12 01:18:44;;;;;;;74.82;11.27;;;9.30;1.00;;;;;;5003757;28;20181;-82
2022/03/12 01:21:18;;;;;;;68.20;8.20;;;9.30;1.00;;;;;;5002842;28;20163;-82
2022/03/12 01:23:46;;;;;;;71.53;8.60;;;9.30;1.00;;;;;;5004067;28;20151;-82
2022/03/12 01:26:12;;;;;;;72.55;10.85;;;9.30;1.00;;;;;;5002884;28;20188;-82
2022/03/12 01:28:38;;;;;;;68.80;10.20;;;9.30;1.00;;;;;;5003492;28;20194;-82
2022/03/12 01:31:04;;;;;;;73.22;8.23;;;9.30;1.00;;;;;;5001775;28;20428;-82
2022/03/12 01:33:30;;;;;;;69.50;11.13;;;9.30;1.00;;;;;;5003123;28;20163;-82
2022/03/12 01:35:57;;;;;;;71.35;11.30;;;9.30;1.00;;;;;;5002795;28;20205;-82
2022/03/12 01:38:35;;;;;;;71.93;10.25;;;9.30;1.00;;;;;;5001334;28;20205;-82
2022/03/12 01:41:04;;;;;;;68.65;10.77;;;9.40;1.00;;;;;;5003338;28;20495;-82
2022/03/12 01:43:36;;;;;;;68.32;9.68;;;9.40;1.00;;;;;;5001155;28;20189;-82
2022/03/12 01:46:02;;;;;;;66.60;8.13;;;9.40;1.00;;;;;;5002105;28;20175;-82
2022/03/12 01:48:33;;;;;;;66.87;8.80;;;9.40;1.00;;;;;;5002637;28;20705;-82
2022/03/12 01:50:59;;;;;;;66.72;8.50;;;9.50;1.00;;;;;;5003809;28;20386;-81
2022/03/12 01:53:29;;;;;;;69.57;9.77;;;9.50;1.00;;;;;;5002883;28;20174;-82
2022/03/12 01:55:56;;;;;;;68.35;9.15;;;9.40;1.00;;;;;;5001759;28;20226;-81
2022/03/12 01:58:23;;;;;;;67.72;8.93;;;9.40;1.00;;;;;;5002422;28;20190;-82
2022/03/12 02:00:51;;;;;;;68.90;10.80;;;9.40;1.00;;;;;;5002536;28;20574;-82
2022/03/12 02:03:29;;;;;;;68.60;8.75;;;9.40;1.00;;;;;;5002802;28;20237;-81
2022/03/12 02:05:56;;;;;;;70.90;9.48;;;9.40;1.00;;;;;;5002413;28;20215;-82
2022/03/12 02:08:21;;;;;;;68.10;8.00;;;9.40;1.00;;;;;;5002770;28;20232;-82
2022/03/12 02:10:57;;;;;;;66.60;8.90;;;9.40;1.00;;;;;;5002391;28;20234;-82
2022/03/12 02:13:24;;;;;;;71.88;9.77;;;9.40;1.00;;;;;;5002017;28;20271;-82
2022/03/12 02:15:58;;;;;;;69.50;11.05;;;9.40;1.00;;;;;;5000583;28;20206;-82
2022/03/12 02:18:23;;;;;;;70.22;9.88;;;9.40;1.00;;;;;;5001978;28;20191;-82
2022/03/12 02:20:49;;;;;;;71.47;10.07;;;9.40;1.00;;;;;;5000793;28;20173;-82
2022/03/12 02:23:20;;;;;;;68.33;10.63;;;9.30;1.00;;;;;;5002017;28;20162;-82
2022/03/12 02:25:46;;;;;;;71.47;10.18;;;9.40;1.00;;;;;;5001958;28;20181;-82
2022/03/12 02:28:17;;;;;;;71.87;12.10;;;9.40;1.00;;;;;;5002361;28;20202;-82
2022/03/12 02:30:51;;;;;;;68.35;8.75;;;9.30;1.00;;;;;;5001900;28;20169;-82
2022/03/12 02:33:24;;;;;;;71.07;10.57;;;9.40;1.00;;;;;;5002175;28;20522;-82
2022/03/12 02:35:53;;;;;;;69.50;10.57;;;9.30;1.00;;;;;;5001252;28;20277;-82
2022/03/12 02:38:21;;;;;;;69.30;11.25;;;9.30;1.00;;;;;;5000122;28;20198;-82
2022/03/12 02:40:50;;;;;;;67.85;10.95;;;9.30;1.00;;;;;;5001530;28;20158;-82
2022/03/12 02:43:25;;;;;;;69.88;12.63;;;9.30;1.00;;;;;;5001318;28;20169;-82
2022/03/12 02:45:51;;;;;;;70.07;11.75;;;9.30;1.00;;;;;;5001965;28;20224;-82
2022/03/12 02:48:18;;;;;;;68.82;10.85;;;9.30;1.00;;;;;;5001525;28;20171;-82
2022/03/12 02:50:44;;;;;;;70.07;12.68;;;9.30;1.00;;;;;;5001696;28;20167;-82
2022/03/12 02:53:09;;;;;;;70.13;10.93;;;9.30;1.00;;;;;;4999890;28;20221;-82
2022/03/12 02:55:41;;;;;;;71.10;11.07;;;9.30;1.00;;;;;;5001407;28;20690;-82
2022/03/12 02:58:10;;;;;;;70.80;9.00;;;9.30;1.00;;;;;;5000835;28;20277;-82
2022/03/12 03:00:37;;;;;;;69.57;8.35;;;9.30;1.00;;;;;;5001951;28;20274;-82
2022/03/12 03:03:05;;;;;;;66.75;6.88;;;9.30;1.00;;;;;;5001892;28;20166;-83
2022/03/12 03:05:41;;;;;;;72.57;10.98;;;9.20;1.00;;;;;;5000021;28;20173;-82
2022/03/12 03:08:09;;;;;;;77.45;12.60;;;9.20;1.00;;;;;;5001943;28;20721;-82
2022/03/12 03:10:40;;;;;;;68.55;12.88;;;9.10;1.00;;;;;;5001186;28;20230;-82
2022/03/12 03:13:15;;;;;;;73.22;13.88;;;9.00;1.00;;;;;;5000815;28;20175;-82
2022/03/12 03:15:41;;;;;;;71.80;13.68;;;9.00;1.00;;;;;;5000654;28;20185;-82
2022/03/12 03:18:09;;;;;;;72.15;13.35;;;8.90;1.00;;;;;;5000810;28;20199;-82
2022/03/12 03:20:35;;;;;;;71.78;13.70;;;9.00;1.00;;;;;;4999879;28;20166;-82
2022/03/12 03:23:01;;;;;;;68.47;13.30;;;9.00;1.00;;;;;;5001389;28;20507;-83
2022/03/12 03:25:26;;;;;;;69.60;13.37;;;8.90;1.00;;;;;;5001612;28;20409;-83
2022/03/12 03:27:52;;;;;;;69.33;12.10;;;8.90;1.00;;;;;;5001160;28;20195;-82
2022/03/12 03:30:18;;;;;;;71.27;13.33;;;8.80;1.00;;;;;;5001163;28;20652;-83
2022/03/12 03:32:44;;;;;;;69.60;11.00;;;8.80;1.00;;;;;;4999146;28;20166;-82
2022/03/12 03:35:09;;;;;;;69.75;11.90;;;8.80;1.00;;;;;;5001597;28;20530;-83
2022/03/12 03:37:35;;;;;;;70.40;9.03;;;8.80;1.00;;;;;;5000790;28;20198;-82
2022/03/12 03:40:02;;;;;;;68.03;9.23;;;8.70;1.00;;;;;;5001169;28;20186;-83
2022/03/12 03:42:27;;;;;;;69.40;8.95;;;8.80;1.00;;;;;;4999962;28;20167;-83
2022/03/12 03:44:57;;;;;;;71.80;10.00;;;8.70;1.00;;;;;;4999489;28;20174;-83
2022/03/12 03:47:23;;;;;;;67.97;8.57;;;8.70;1.00;;;;;;5002453;28;20190;-83
2022/03/12 03:49:48;;;;;;;76.90;8.60;;;8.70;1.00;;;;;;5000976;28;20167;-83
2022/03/12 03:52:14;;;;;;;70.07;9.90;;;8.70;1.00;;;;;;5001474;28;20167;-82
2022/03/12 03:54:43;;;;;;;70.50;8.83;;;8.70;1.00;;;;;;4998909;28;20174;-82
2022/03/12 03:57:15;;;;;;;70.55;8.27;;;8.70;1.00;;;;;;5000575;28;20508;-82
2022/03/12 03:59:41;;;;;;;70.60;7.60;;;8.70;1.00;;;;;;4999228;28;20512;-82
2022/03/12 04:02:06;;;;;;;71.57;7.20;;;8.70;1.00;;;;;;5000357;28;20249;-82
2022/03/12 04:04:35;;;;;;;68.73;7.57;;;8.60;1.00;;;;;;4999487;28;20178;-82
2022/03/12 04:07:01;;;;;;;69.97;8.85;;;8.60;1.00;;;;;;4998733;28;20697;-82
2022/03/12 04:09:27;;;;;;;69.18;8.32;;;8.60;1.00;;;;;;5000443;28;20174;-82
2022/03/12 04:11:53;;;;;;;70.27;10.27;;;8.50;1.00;;;;;;4999072;28;20661;-82
2022/03/12 04:14:18;;;;;;;69.90;9.03;;;8.50;1.00;;;;;;4999991;28;20473;-82
2022/03/12 04:16:44;;;;;;;70.43;10.50;;;8.50;1.00;;;;;;4999866;28;20477;-82
2022/03/12 04:19:11;;;;;;;70.47;9.17;;;8.50;1.00;;;;;;4999979;28;20158;-82
2022/03/12 04:21:37;;;;;;;73.68;10.50;;;8.50;1.00;;;;;;4999866;28;20526;-82
2022/03/12 04:24:03;;;;;;;69.22;10.27;;;8.50;1.00;;;;;;4998409;28;20166;-82
2022/03/12 04:26:30;;;;;;;75.10;15.10;;;8.50;1.00;;;;;;5000197;28;20179;-82
2022/03/12 04:28:57;;;;;;;71.57;15.10;;;8.50;1.00;;;;;;4998241;28;20472;-82
2022/03/12 04:31:23;;;;;;;70.63;12.23;;;8.40;1.00;;;;;;4999997;28;20649;-82
2022/03/12 04:33:49;;;;;;;75.20;13.50;;;8.40;1.00;;;;;;5000022;28;20217;-82
2022/03/12 04:36:14;;;;;;;68.40;10.57;;;8.40;1.00;;;;;;4999543;28;20257;-82
2022/03/12 04:38:40;;;;;;;72.27;14.27;;;8.40;1.00;;;;;;4999679;28;20163;-82
2022/03/12 04:41:08;;;;;;;73.87;16.97;;;8.40;1.00;;;;;;4999865;28;20573;-82
2022/03/12 04:43:34;;;;;;;83.55;16.40;;;8.30;1.00;;;;;;4999808;28;20476;-82
2022/03/12 04:46:00;;;;;;;71.97;16.05;;;8.30;1.00;;;;;;4998688;28;20195;-82
2022/03/12 04:48:26;;;;;;;78.05;19.02;;;8.30;1.00;;;;;;4999529;28;20170;-82
2022/03/12 04:50:53;;;;;;;69.90;13.50;;;8.30;1.00;;;;;;4998183;28;20178;-82
2022/03/12 04:53:21;;;;;;;73.38;14.50;;;8.30;1.00;;;;;;4998267;28;20173;-82
2022/03/12 04:55:47;;;;;;;70.95;13.98;;;8.30;1.00;;;;;;4999996;28;20162;-82
2022/03/12 04:58:13;;;;;;;69.68;12.15;;;8.30;1.00;;;;;;4999462;28;20277;-82
2022/03/12 05:00:41;;;;;;;69.57;11.07;;;8.30;1.00;;;;;;4999919;28;20658;-82
2022/03/12 05:03:08;;;;;;;70.72;11.85;;;8.30;1.00;;;;;;4999823;28;20398;-82
2022/03/12 05:05:40;;;;;;;69.60;9.30;;;8.30;1.00;;;;;;4997872;28;20179;-82
2022/03/12 05:08:15;;;;;;;68.82;9.35;;;8.20;1.00;;;;;;4997958;28;20159;-82
2022/03/12 05:10:48;;;;;;;72.72;9.32;;;8.20;1.00;;;;;;4998737;28;20252;-82
2022/03/12 05:13:14;;;;;;;74.07;10.90;;;8.10;1.00;;;;;;4999641;28;20190;-82
2022/03/12 05:15:40;;;;;;;66.95;9.00;;;8.10;1.00;;;;;;4999701;28;20174;-82
2022/03/12 05:18:08;;;;;;;70.13;13.55;;;8.10;1.00;;;;;;4999313;28;20193;-82
2022/03/12 05:20:36;;;;;;;72.95;13.10;;;8.10;1.00;;;;;;4997677;28;20181;-82
2022/03/12 05:23:03;;;;;;;71.25;13.60;;;8.10;1.00;;;;;;4999489;28;20190;-82
2022/03/12 05:25:31;;;;;;;76.40;15.23;;;8.10;1.00;;;;;;4997535;28;20167;-82
2022/03/12 05:27:57;;;;;;;75.30;14.15;;;8.00;1.00;;;;;;4999308;28;20167;-82
2022/03/12 05:30:23;;;;;;;71.78;13.35;;;8.10;1.00;;;;;;4998951;28;20182;-82
2022/03/12 05:32:50;;;;;;;70.68;13.30;;;8.10;1.00;;;;;;4999514;28;20534;-82
2022/03/12 05:35:17;;;;;;;71.55;11.95;;;8.10;1.00;;;;;;5000503;28;20171;-82
2022/03/12 05:37:45;;;;;;;72.70;11.52;;;8.10;1.00;;;;;;5003027;28;20201;-82
2022/03/12 05:40:11;;;;;;;71.20;10.63;;;8.10;1.00;;;;;;5003264;28;20180;-82
2022/03/12 05:42:37;;;;;;;69.15;11.07;;;8.10;1.00;;;;;;5002576;28;20569;-82
2022/03/12 05:45:09;;;;;;;70.37;12.57;;;8.10;1.00;;;;;;5002754;28;20225;-82
2022/03/12 05:47:39;;;;;;;72.97;12.27;;;8.00;1.00;;;;;;5002895;28;20178;-82
2022/03/12 05:50:09;;;;;;;72.78;15.00;;;8.10;1.00;;;;;;5001550;28;20166;-82
2022/03/12 05:52:47;;;;;;;73.05;17.33;;;8.00;1.00;;;;;;5001843;28;20181;-82
2022/03/12 05:55:14;;;;;;;77.88;19.02;;;7.90;1.00;;;;;;5002871;28;20159;-82
2022/03/12 05:57:41;;;;;;;78.80;19.27;;;7.90;1.00;;;;;;5002626;28;20736;-82
2022/03/12 06:00:11;;;;;;;76.07;21.50;;;7.90;1.00;;;;;;5003179;28;20159;-82
2022/03/12 06:02:49;;;;;;;72.88;18.60;;;7.90;1.00;;;;;;5002874;28;20193;-82
2022/03/12 06:05:19;;;;;;;72.57;17.73;;;7.90;1.00;;;;;;5003060;28;20139;-82
2022/03/12 06:07:45;;;;;;;71.88;13.20;;;7.90;1.00;;;;;;5002324;28;20253;-82
2022/03/12 06:10:21;;;;;;;74.38;18.08;;;7.80;1.00;;;;;;5002737;28;20171;-82
2022/03/12 06:12:51;;;;;;;69.13;12.25;;;7.80;1.00;;;;;;5002358;28;20178;-82
2022/03/12 06:15:18;;;;;;;69.32;12.80;;;7.60;1.00;;;;;;5001268;28;20170;-82
2022/03/12 06:17:45;;;;;;;74.30;12.50;;;7.60;1.00;;;;;;5002043;28;20194;-82
2022/03/12 06:20:12;;;;;;;74.70;12.20;;;7.50;1.00;;;;;;5001882;28;20183;-82
2022/03/12 06:22:38;;;;;;;72.80;11.73;;;7.50;1.00;;;;;;5002149;28;20162;-82
2022/03/12 06:25:09;;;;;;;71.18;10.05;;;7.40;1.00;;;;;;5002395;28;20197;-82
2022/03/12 06:27:35;;;;;;;68.68;10.70;;;7.40;1.00;;;;;;5002133;28;20186;-82
2022/03/12 06:30:08;;;;;;;71.75;10.52;;;7.40;1.00;;;;;;5002255;28;20182;-82
2022/03/12 06:32:36;;;;;;;73.00;16.52;;;7.50;1.00;;;;;;5003692;28;20234;-82
2022/03/12 06:35:02;;;;;;;72.28;16.77;;;7.50;1.00;;;;;;5002581;28;20162;-82
2022/03/12 06:37:28;;;;;;;70.88;14.40;;;7.40;1.00;;;;;;5000343;28;20206;-82
2022/03/12 06:39:55;;;;;;;73.30;15.97;;;7.50;1.00;;;;;;5000915;28;20178;-82
2022/03/12 06:42:27;;;;;;;72.25;12.00;;;7.50;1.00;;;;;;5002145;28;20500;-82
2022/03/12 06:44:55;;;;;;;72.07;13.77;;;7.50;1.00;;;;;;5000587;28;20665;-82
2022/03/12 06:47:24;;;;;;;73.82;14.20;;;7.60;1.00;;;;;;4999544;28;20191;-82
2022/03/12 06:49:49;;;;;;;75.50;13.95;;;7.60;1.00;;;;;;5000079;28;20202;-82
2022/03/12 06:52:15;;;;;;;71.43;12.87;;;7.70;1.00;;;;;;5001140;28;20170;-82
2022/03/12 06:54:41;;;;;;;75.97;13.00;;;7.70;1.00;;;;;;5000368;28;20749;-82
2022/03/12 06:57:06;;;;;;;70.47;11.47;;;7.70;1.00;;;;;;5000523;28;20957;-82
2022/03/12 06:59:32;;;;;;;71.17;12.70;;;7.80;1.00;;;;;;4999607;28;20174;-82
2022/03/12 07:01:58;;;;;;;73.60;13.13;;;8.00;1.00;;;;;;5000604;28;20205;-82
2022/03/12 07:04:24;;;;;;;72.70;14.27;;;8.10;1.00;;;;;;5000959;28;20178;-82
2022/03/12 07:06:50;;;;;;;75.95;17.50;;;8.00;1.00;;;;;;4999511;28;20191;-82
2022/03/12 07:09:17;;;;;;;78.10;28.60;;;8.10;1.00;;;;;;5000617;28;20578;-82
2022/03/12 07:11:43;;;;;;;76.22;21.83;;;8.30;1.00;;;;;;5001000;28;20785;-82
2022/03/12 07:14:10;;;;;;;75.03;17.05;;;8.30;1.00;;;;;;5000473;28;20171;-82
2022/03/12 07:16:36;;;;;;;74.38;19.35;;;8.40;1.00;;;;;;5000615;28;20186;-82
2022/03/12 07:19:02;;;;;;;74.95;17.58;;;8.50;1.00;;;;;;4999737;28;20166;-82
2022/03/12 07:21:28;;;;;;;74.53;19.13;;;8.60;1.00;;;;;;5001269;28;20634;-83
2022/03/12 07:23:55;;;;;;;77.90;19.50;;;8.60;1.00;;;;;;4999702;28;20162;-82
2022/03/12 07:26:21;;;;;;;82.07;21.55;;;8.60;1.00;;;;;;4998940;28;20186;-82
2022/03/12 07:28:48;;;;;;;73.93;18.05;;;8.80;1.00;;;;;;4999942;28;20198;-82
2022/03/12 07:31:16;;;;;;;74.53;21.80;;;8.90;1.00;;;;;;4999858;28;20187;-82
2022/03/12 07:33:42;;;;;;;74.05;19.02;;;8.90;1.00;;;;;;5000077;28;20231;-82
2022/03/12 07:36:09;;;;;;;75.50;16.88;;;9.00;1.00;;;;;;4998238;28;20187;-82
2022/03/12 07:38:34;;;;;;;74.80;17.88;;;9.00;1.00;;;;;;4999912;28;20201;-82
2022/03/12 07:41:00;;;;;;;74.77;18.13;;;9.00;1.00;;;;;;4999706;28;20604;-82
2022/03/12 07:43:26;;;;;;;76.27;19.63;;;9.10;1.00;;;;;;4999896;28;20638;-82
2022/03/12 07:45:52;;;;;;;73.78;15.82;;;9.10;1.00;;;;;;4997732;28;20278;-80
2022/03/12 07:48:18;;;;;;;71.22;15.80;;;9.20;1.00;;;;;;4997315;28;20646;-82
2022/03/12 07:50:44;;;;;;;72.93;18.53;;;9.30;1.00;;;;;;4999615;28;20173;-82
2022/03/12 07:53:13;;;;;;;81.70;24.70;;;9.40;1.00;;;;;;4998986;28;20262;-82
2022/03/12 07:55:40;;;;;;;76.68;23.35;;;9.50;1.00;;;;;;5000053;28;20163;-83
2022/03/12 07:58:06;;;;;;;79.22;23.58;;;9.60;1.00;;;;;;5002479;28;20190;-82
2022/03/12 08:00:33;;;;;;;77.45;23.42;;;9.60;1.00;;;;;;5000647;28;20175;-83
2022/03/12 08:02:59;;;;;;;78.80;24.50;;;9.70;1.00;;;;;;5000639;28;20163;-82
2022/03/12 08:05:25;;;;;;;78.50;20.30;;;9.80;1.00;;;;;;5000829;28;20174;-83
2022/03/12 08:07:57;;;;;;;75.20;16.23;;;9.80;1.00;;;;;;5000241;28;20217;-83
2022/03/12 08:10:26;;;;;;;74.22;17.85;;;9.90;1.00;;;;;;5000345;28;20186;-83
2022/03/12 08:12:52;;;;;;;73.03;15.40;;;9.90;1.00;;;;;;5000610;28;20689;-83
2022/03/12 08:15:19;;;;;;;73.47;16.30;;;10.00;1.00;;;;;;5000259;28;20171;-83
2022/03/12 08:17:47;;;;;;;74.60;16.00;;;10.00;1.00;;;;;;4998608;28;20464;-83
2022/03/12 08:20:14;;;;;;;74.30;13.40;;;10.10;1.00;;;;;;5000300;28;20162;-83
2022/03/12 08:22:42;;;;;;;75.45;16.85;;;10.20;1.00;;;;;;5000116;28;20165;-83
2022/03/12 08:25:10;;;;;;;73.57;15.15;;;10.30;1.00;;;;;;4999045;28;20213;-83
2022/03/12 08:27:37;;;;;;;73.65;15.88;;;10.30;1.00;;;;;;4998227;28;20194;-83
2022/03/12 08:30:07;;;;;;;71.82;12.63;;;10.30;1.00;;;;;;4998877;28;20170;-83
2022/03/12 08:32:35;;;;;;;75.43;14.85;;;10.30;1.00;;;;;;4999053;28;20173;-83
2022/03/12 08:35:05;;;;;;;77.93;13.50;;;10.30;1.00;;;;;;5000444;28;20173;-83
2022/03/12 08:37:32;;;;;;;75.30;13.82;;;10.40;1.00;;;;;;4998851;28;20256;-83
2022/03/12 08:39:57;;;;;;;73.70;14.80;;;10.50;1.00;;;;;;5000831;28;20159;-83
2022/03/12 08:42:24;;;;;;;74.23;14.30;;;10.50;1.00;;;;;;5000410;28;20167;-83
2022/03/12 08:44:51;;;;;;;74.93;15.68;;;10.60;1.00;;;;;;5000572;28;20673;-83
2022/03/12 08:47:17;;;;;;;74.75;16.23;;;10.70;1.00;;;;;;4999599;28;20193;-83
2022/03/12 08:49:42;;;;;;;72.75;14.30;;;10.80;1.00;;;;;;5000301;28;20181;-83
2022/03/12 08:52:08;;;;;;;71.50;11.73;;;10.90;1.00;;;;;;4999756;28;20217;-83
2022/03/12 08:54:35;;;;;;;72.03;12.07;;;11.00;2.60;;;;;;4999790;28;20166;-83
2022/03/12 08:57:01;;;;;;;72.22;13.35;;;11.10;11.00;;;;;;4999847;28;20450;-83
2022/03/12 08:59:27;;;;;;;71.68;10.63;;;11.20;18.90;;;;;;5000112;28;20159;-83
2022/03/12 09:01:53;;;;;;;69.23;9.40;;;11.40;23.60;;;;;;4998976;28;20173;-82
2022/03/12 09:04:19;;;;;;;69.97;9.13;;;11.40;28.40;;;;;;5000782;28;20167;-83
2022/03/12 09:06:47;;;;;;;69.32;7.75;;;11.40;34.90;;;;;;5000641;28;20430;-83
2022/03/12 09:09:13;;;;;;;71.32;9.50;;;11.60;33.70;;;;;;4999038;28;20179;-84
2022/03/12 09:11:39;;;;;;;70.13;10.32;;;11.70;33.30;;;;;;5004564;28;20638;-83
2022/03/12 09:14:05;;;;;;;70.43;9.40;;;11.90;33.00;;;;;;5002944;28;20691;-84
2022/03/12 09:16:30;;;;;;;70.87;9.00;;;11.90;30.20;;;;;;5003878;28;20190;-83
2022/03/12 09:18:57;;;;;;;72.77;11.30;;;11.90;36.00;;;;;;5003422;28;20163;-83
2022/03/12 09:21:24;;;;;;;70.55;9.88;;;12.00;33.70;;;;;;5003843;28;20163;-84
2022/03/12 09:23:49;;;;;;;67.13;7.25;;;12.00;31.50;;;;;;5006693;28;20166;-84
2022/03/12 09:26:18;;;;;;;69.73;8.30;;;11.90;36.00;;;;;;5007098;28;20666;-84
2022/03/12 09:28:48;;;;;;;69.70;8.70;;;11.90;37.70;;;;;;5006148;28;20406;-83
2022/03/12 09:31:14;;;;;;;69.25;7.30;;;12.10;38.40;;;;;;5006370;28;20159;-84
2022/03/12 09:33:41;;;;;;;70.88;8.63;;;12.20;33.20;;;;;;5003408;28;20162;-84
2022/03/12 09:36:09;;;;;;;68.28;8.30;;;12.30;32.60;;;;;;5003914;28;20187;-83
2022/03/12 09:38:38;;;;;;;70.90;10.15;;;12.30;33.10;;;;;;5003910;28;20277;-84
2022/03/12 09:41:04;;;;;;;70.13;8.70;;;12.30;35.40;;;;;;5002944;28;20530;-83
2022/03/12 09:43:30;;;;;;;67.73;9.10;;;12.40;32.10;;;;;;5005331;28;20159;-84
2022/03/12 09:46:00;;;;;;;70.80;10.45;;;12.50;29.00;;;;;;5006247;28;20505;-84
2022/03/12 09:48:26;;;;;;;69.03;9.43;;;12.50;27.30;;;;;;5003500;28;20166;-83
2022/03/12 09:50:52;;;;;;;71.35;11.10;;;12.50;29.80;;;;;;5003676;28;20786;-83
2022/03/12 09:53:23;;;;;;;71.10;14.80;;;12.50;26.80;;;;;;5002844;28;20171;-83
2022/03/12 09:55:57;;;;;;;77.55;12.07;;;12.70;25.70;;;;;;5004286;28;20151;-84
2022/03/12 10:02:30;;;;;;;71.38;14.38;;;12.90;24.90;;;;;;4925737;29;20179;-84
2022/03/12 10:08:12;;;;;;;70.20;13.20;;;13.10;17.80;;;;;;4867397;29;20507;-83
2022/03/12 10:10:41;;;;;;;68.97;9.30;;;13.10;17.00;;;;;;4867135;29;20206;-83
2022/03/12 10:13:07;;;;;;;67.35;9.52;;;13.20;14.40;;;;;;4916283;28;20539;-83
2022/03/12 10:15:39;;;;;;;67.97;13.43;;;13.40;13.60;;;;;;5000666;28;20179;-83
2022/03/12 10:18:07;;;;;;;71.10;22.92;;;13.50;9.30;;;;;;5001510;28;20477;-84
2022/03/12 10:20:44;;;;;;;;;;;;;;;;;;;;;
2022/03/12 10:23:18;;;;;;;73.13;27.13;;;13.70;6.70;;;;;;5002381;28;20222;-84
2022/03/12 10:25:45;;;;;;;73.87;30.80;;;14.10;3.90;;;;;;5002175;28;20413;-84
2022/03/12 10:28:18;;;;;;;77.33;38.20;;;14.20;1.00;;;;;;5001251;28;20417;-84
2022/03/12 10:30:43;;;;;;;81.83;39.17;;;14.00;1.00;;;;;;5001292;28;20402;-84
2022/03/12 10:33:19;;;;;;;74.67;31.00;;;14.10;1.00;;;;;;5000533;28;20410;-84
2022/03/12 10:35:48;;;;;;;74.87;29.03;;;14.30;1.00;;;;;;5001937;28;20874;-84
2022/03/12 10:38:14;;;;;;;75.80;29.03;;;14.50;1.00;;;;;;5001441;28;20564;-84
2022/03/12 10:40:40;;;;;;;77.00;36.13;;;14.50;1.00;;;;;;5002313;28;20438;-85
2022/03/12 10:43:13;;;;;;;78.00;33.47;;;14.30;1.00;;;;;;5001265;28;20206;-84
2022/03/12 10:45:52;;;;;;;77.10;30.70;;;14.20;1.00;;;;;;5002801;28;20878;-84
2022/03/12 10:48:19;;;;;;;71.57;27.03;;;14.30;1.00;;;;;;5001524;28;20452;-84
2022/03/12 10:50:47;;;;;;;72.80;26.83;;;14.30;1.00;;;;;;5001394;28;20444;-84
2022/03/12 10:53:19;;;;;;;76.57;33.80;;;14.40;1.00;;;;;;5002024;28;20406;-84
2022/03/12 10:55:47;;;;;;;83.00;53.23;;;14.40;1.00;;;;;;5001700;28;20409;-84
2022/03/12 10:58:26;;;;;;;86.40;59.83;;;14.60;1.00;;;;;;4999955;28;20455;-84
2022/03/12 11:01:00;;;;;;;83.03;49.77;;;14.60;1.00;;;;;;5001028;28;20410;-84
2022/03/12 11:03:37;;;;;;;80.80;45.50;;;14.50;1.00;;;;;;5001843;28;20394;-84
2022/03/12 11:06:08;;;;;;;74.13;28.20;;;14.60;1.00;;;;;;5000804;28;20425;-83
2022/03/12 11:08:35;;;;;;;87.53;57.90;;;14.70;1.00;;;;;;5002079;28;20457;-83
2022/03/12 11:11:11;;;;;;;83.83;48.87;;;14.70;1.00;;;;;;5000712;28;20414;-84
2022/03/12 11:13:43;;;;;;;80.87;47.93;;;14.50;1.00;;;;;;5001343;28;20401;-84
2022/03/12 11:16:27;;;;;;;84.13;54.30;;;14.50;1.00;;;;;;5001825;28;20432;-84
2022/03/12 11:18:52;;;;;;;83.23;58.77;;;14.50;1.00;;;;;;5001780;28;20524;-84
2022/03/12 11:21:37;;;;;;;77.70;41.00;;;14.50;1.00;;;;;;5001627;28;20434;-84
2022/03/12 11:24:27;;;;;;;74.63;25.93;;;14.70;1.00;;;;;;5001614;28;20151;-85
2022/03/12 11:26:58;;;;;;;73.60;30.93;;;14.90;1.00;;;;;;5024727;23;20488;-84
2022/03/12 11:29:26;;;;;;;79.73;42.77;;;15.00;1.00;;;;;;5013963;28;20414;-84
2022/03/12 11:31:53;;;;;;;79.50;45.43;;;15.10;1.00;;;;;;5001541;28;20426;-84
2022/03/12 11:34:43;;;;;;;98.50;88.20;;;15.30;1.00;;;;;;5001005;28;20405;-84
2022/03/12 11:37:18;;;;;;;91.20;76.07;;;15.20;1.00;;;;;;4999736;28;20525;-84
2022/03/12 11:39:47;;;;;;;88.90;78.07;;;15.20;1.00;;;;;;5000764;28;20402;-84
2022/03/12 11:42:24;;;;;;;96.93;86.80;;;15.00;1.00;;;;;;5000746;28;20398;-84
2022/03/12 11:44:55;;;;;;;85.23;64.17;;;15.00;1.00;;;;;;5000499;28;20382;-84
2022/03/12 11:47:48;;;;;;;90.80;80.30;;;15.10;1.00;;;;;;5000662;28;20794;-84
2022/03/12 11:50:19;;;;;;;89.47;74.77;;;15.10;1.00;;;;;;4996134;28;20415;-84
2022/03/12 11:52:46;;;;;;;88.37;68.17;;;15.10;1.00;;;;;;4999967;28;20402;-84
2022/03/12 11:55:30;;;;;;;82.37;54.40;;;14.90;1.00;;;;;;5003062;28;20430;-84
2022/03/12 11:57:59;;;;;;;84.87;66.20;;;15.00;1.00;;;;;;5002482;28;20432;-84
2022/03/12 12:00:29;;;;;;;88.37;71.30;;;15.10;1.00;;;;;;5000387;28;20415;-84
2022/03/12 12:02:55;;;;;;;88.20;74.67;;;15.20;1.00;;;;;;5000267;28;20436;-84
2022/03/12 12:05:23;;;;;;;92.70;82.67;;;15.10;1.00;;;;;;4999708;28;20445;-84
2022/03/12 12:07:51;;;;;;;83.97;60.20;;;15.30;1.00;;;;;;4999528;28;20437;-84
2022/03/12 12:10:18;;;;;;;95.60;83.70;;;15.20;1.00;;;;;;5000693;28;20984;-84
2022/03/12 12:12:47;;;;;;;83.20;59.27;;;15.20;1.00;;;;;;5000836;28;20461;-84
2022/03/12 12:15:19;;;;;;;80.50;44.13;;;15.40;1.00;;;;;;5001032;28;20409;-84
2022/03/12 12:17:46;;;;;;;74.90;37.77;;;15.30;1.00;;;;;;5001422;28;20442;-84
2022/03/12 12:20:16;;;;;;;80.90;46.83;;;15.30;1.00;;;;;;4998919;28;20414;-84
2022/03/12 12:23:29;;;;;;;79.23;40.37;;;15.30;1.00;;;;;;5002384;28;20413;-84
2022/03/12 12:25:38;;;;;;;81.43;54.10;;;15.20;1.00;;;;;;4994495;28;20422;-84
2022/03/12 12:28:27;;;;;;;81.70;53.97;;;15.20;1.00;;;;;;5000461;28;20448;-84
2022/03/12 12:30:55;;;;;;;83.40;60.63;;;15.30;1.00;;;;;;4999609;28;20422;-84
2022/03/12 12:33:43;;;;;;;94.00;77.20;;;15.60;1.00;;;;;;4998765;28;20501;-84
2022/03/12 12:36:22;;;;;;;128.53;117.07;;;15.90;1.00;;;;;;5001681;28;20437;-84
2022/03/12 12:39:35;;;;;;;190.13;176.73;;;16.30;1.00;;;;;;5000749;28;20485;-84
2022/03/12 12:42:49;;;;;;;89.37;71.67;;;16.60;1.00;;;;;;5003809;28;20383;-84
2022/03/12 12:45:23;;;;;;;74.70;31.73;;;16.70;1.00;;;;;;4997089;28;20446;-84
2022/03/12 12:48:08;;;;;;;74.23;31.37;;;16.40;1.00;;;;;;5001594;28;20417;-84
2022/03/12 12:50:34;;;;;;;74.80;32.93;;;16.30;1.00;;;;;;4999866;28;20414;-83
2022/03/12 12:53:16;;;;;;;92.37;71.73;;;16.30;1.00;;;;;;4997295;28;20426;-83
2022/03/12 12:55:45;;;;;;;81.90;41.47;;;16.20;1.00;;;;;;4999468;28;20407;-84
2022/03/12 12:58:11;;;;;;;72.90;29.67;;;15.90;1.00;;;;;;5000314;28;20455;-84
2022/03/12 13:00:39;;;;;;;84.67;54.63;;;15.90;1.00;;;;;;4999748;28;20410;-84